Hiyodori — JD2366 — position and weather

sailwx.info

Track history (hours):
 
Tides and Currents Weather Stations Pressure Air Temp Water Temp Dewpoint Dewpoint Depression Visibility Wind Speed Wind Dir Waves Ship Positions

Hiyodori

Last reported at 2015-Mar-27 14:20 UTC. Time now 2015-Mar-27 19:16 UTC.
Position N 35°02' E 139°28'.

Length 88 m; draft 3.6 m.

Type: Cargo ship. MMSI: 431000132.

Date/timePositionNaut miles runAvg speedWind from/ knotsBaromVisibWave heightAir tempDewpointWater temp
2015-Mar-27 14:20N 35°02' E 139°28'7 9.5
2015-Mar-27 13:33N 35°05' E 139°37'1010.2
2015-Mar-27 12:33N 35°12' E 139°46'1010.2
2015-Mar-27 11:33N 35°22' E 139°42'5 4.6
2015-Mar-27 10:33N 35°26' E 139°41'0 0.0
2015-Mar-27 09:33N 35°26' E 139°41'0 0.0
2015-Mar-27 08:33N 35°26' E 139°41'0 0.0
2015-Mar-27 07:33N 35°26' E 139°41'0 0.5
2015-Mar-27 06:34N 35°27' E 139°41'7 7.1
2015-Mar-27 05:33N 35°30' E 139°49'6 6.4
2015-Mar-27 04:33N 35°36' E 139°47'5 4.6
2015-Mar-27 03:33N 35°33' E 139°51'6 5.9
2015-Mar-27 02:34N 35°29' E 139°45'0 0.2
2015-Mar-27 01:34N 35°29' E 139°45'1111.3
2015-Mar-27 00:33N 35°18' E 139°45'1212.2
2015-Mar-26 23:33N 35°06' E 139°44'14 0.4
2015-Mar-25 09:27N 35°00' E 139°29'910.1
2015-Mar-25 08:33N 35°05' E 139°38'1110.9
2015-Mar-25 07:33N 35°14' E 139°46'1110.7
2015-Mar-25 06:34N 35°24' E 139°43'3 3.3
2015-Mar-25 05:34N 35°28' E 139°42'0 0.0
2015-Mar-25 04:34N 35°28' E 139°42'1 0.9
2015-Mar-25 03:33N 35°27' E 139°43'4 4.1
2015-Mar-25 02:34N 35°24' E 139°44'0 0.0
2015-Mar-25 01:34N 35°24' E 139°44'0 0.0
2015-Mar-25 00:33N 35°24' E 139°44'0 0.0
2015-Mar-24 23:33N 35°24' E 139°44'0 0.0
2015-Mar-24 22:33N 35°24' E 139°44'0 0.0
2015-Mar-24 21:34N 35°24' E 139°44'0 0.0
2015-Mar-24 20:34N 35°24' E 139°44'0 0.0
2015-Mar-24 19:34N 35°24' E 139°44'0 0.0
2015-Mar-24 18:34N 35°24' E 139°44'0 0.0
2015-Mar-24 17:33N 35°24' E 139°44'0 0.0
2015-Mar-24 16:33N 35°24' E 139°44'0 0.0
2015-Mar-24 15:33N 35°24' E 139°44'0 0.0
2015-Mar-24 14:33N 35°24' E 139°44'0 0.0
2015-Mar-24 13:34N 35°24' E 139°44'0 0.0
2015-Mar-24 12:34N 35°24' E 139°44'0 0.0
2015-Mar-24 11:33N 35°24' E 139°44'0 0.0
2015-Mar-24 10:33N 35°24' E 139°44'0 0.1
2015-Mar-24 09:34N 35°24' E 139°44'3 2.9
2015-Mar-24 08:33N 35°24' E 139°41'0 0.0
2015-Mar-24 07:34N 35°24' E 139°41'0 0.2
2015-Mar-24 06:34N 35°24' E 139°41'3 2.7
2015-Mar-24 05:34N 35°23' E 139°43'0 0.0
2015-Mar-24 04:34N 35°23' E 139°43'0 0.3
2015-Mar-24 03:33N 35°22' E 139°43'1010.4
2015-Mar-24 02:33N 35°12' E 139°47'1211.6
2015-Mar-24 01:33N 35°02' E 139°39'12 0.4
2015-Mar-22 16:15N 35°02' E 139°24'710.3
2015-Mar-22 15:33N 35°04' E 139°33'1010.5
2015-Mar-22 14:33N 35°10' E 139°44'1110.9
2015-Mar-22 13:33N 35°20' E 139°42'4 3.9
2015-Mar-22 12:33N 35°24' E 139°41'0 0.0
2015-Mar-22 11:33N 35°24' E 139°41'0 0.0
2015-Mar-22 10:33N 35°24' E 139°41'1 0.8
2015-Mar-22 09:33N 35°23' E 139°41'2 2.0
2015-Mar-22 08:33N 35°23' E 139°44'0 0.1
2015-Mar-22 07:33N 35°23' E 139°44'8 8.1
2015-Mar-22 06:33N 35°15' E 139°47'1211.8
2015-Mar-22 05:33N 35°04' E 139°42'24210.5
2015-Mar-21 06:27N 33°51' E 135°03'1112.1
2015-Mar-21 05:34N 34°02' E 134°59'1313.0
2015-Mar-21 04:33N 34°15' E 134°58'1212.0
2015-Mar-21 03:33N 34°26' E 135°05'1212.1
2015-Mar-21 02:33N 34°34' E 135°15'7 7.2
2015-Mar-21 01:33N 34°41' E 135°17'0 0.0
2015-Mar-21 00:33N 34°41' E 135°17'0 0.0
2015-Mar-20 23:33N 34°41' E 135°17'3 3.3
2015-Mar-20 22:33N 34°39' E 135°20'0 0.2
2015-Mar-20 21:33N 34°39' E 135°20'0 0.0
2015-Mar-20 20:33N 34°39' E 135°20'0 0.1
2015-Mar-20 19:33N 34°39' E 135°20'0 0.0
2015-Mar-20 18:33N 34°39' E 135°20'0 0.0
2015-Mar-20 17:33N 34°39' E 135°20'4 4.4
2015-Mar-20 16:33N 34°35' E 135°17'1110.6
2015-Mar-20 15:33N 34°27' E 135°09'13 9.8
2015-Mar-20 14:14N 34°17' E 134°59'710.5
2015-Mar-20 13:33N 34°09' E 135°00'1110.4
2015-Mar-20 12:31N 33°59' E 135°01'238 9.9
2015-Mar-19 12:31N 35°06' E 139°38'1212.1
2015-Mar-19 11:33N 35°16' E 139°46'10 9.6
2015-Mar-19 10:33N 35°24' E 139°41'1 0.9
2015-Mar-19 09:33N 35°24' E 139°40'2 2.2
2015-Mar-19 08:33N 35°25' E 139°42'4 4.4
2015-Mar-19 07:33N 35°29' E 139°39'0 0.0
2015-Mar-19 06:33N 35°29' E 139°39'0 0.0
2015-Mar-19 05:33N 35°29' E 139°39'0 0.0
2015-Mar-19 04:33N 35°29' E 139°39'0 0.0
2015-Mar-19 03:33N 35°29' E 139°39'0 0.0
2015-Mar-19 02:33N 35°29' E 139°39'0 0.0
2015-Mar-19 01:33N 35°29' E 139°39'0 0.0
2015-Mar-19 00:33N 35°29' E 139°39'0 0.0
2015-Mar-18 23:33N 35°29' E 139°39'0 0.0
2015-Mar-18 22:33N 35°29' E 139°39'0 0.0
2015-Mar-18 21:33N 35°29' E 139°39'0 0.0
2015-Mar-18 20:33N 35°29' E 139°39'0 0.0
2015-Mar-18 19:33N 35°29' E 139°39'0 0.0
2015-Mar-18 18:33N 35°29' E 139°39'0 0.0
2015-Mar-18 17:33N 35°29' E 139°39'0 0.0
2015-Mar-18 16:33N 35°29' E 139°39'0 0.0
2015-Mar-18 15:33N 35°29' E 139°39'0 0.0
2015-Mar-18 14:33N 35°29' E 139°39'0 0.0
2015-Mar-18 13:33N 35°29' E 139°39'0 0.0
2015-Mar-18 12:33N 35°29' E 139°39'0 0.0
2015-Mar-18 11:33N 35°29' E 139°39'0 0.0
2015-Mar-18 10:33N 35°29' E 139°39'0 0.0
2015-Mar-18 09:33N 35°29' E 139°39'0 0.0
2015-Mar-18 08:33N 35°29' E 139°39'3 2.5
2015-Mar-18 07:33N 35°27' E 139°41'1 0.9
2015-Mar-18 06:33N 35°28' E 139°42'2 1.5
2015-Mar-18 05:33N 35°26' E 139°43'0 0.0
2015-Mar-18 04:33N 35°26' E 139°43'0 0.0
2015-Mar-18 03:33N 35°26' E 139°43'0 0.0
2015-Mar-18 02:33N 35°26' E 139°43'0 0.0
2015-Mar-18 01:33N 35°26' E 139°43'0 0.1
2015-Mar-18 00:33N 35°26' E 139°43'0 0.0
2015-Mar-17 23:33N 35°26' E 139°43'0 0.0
2015-Mar-17 22:33N 35°26' E 139°43'0 0.0
2015-Mar-17 21:33N 35°26' E 139°43'0 0.1
2015-Mar-17 20:33N 35°26' E 139°43'0 0.0
2015-Mar-17 19:33N 35°26' E 139°43'0 0.1
2015-Mar-17 18:33N 35°26' E 139°43'0 0.0
2015-Mar-17 17:33N 35°26' E 139°43'3 2.9
2015-Mar-17 16:34N 35°24' E 139°43'1211.7
2015-Mar-17 15:33N 35°12' E 139°47'1211.6
2015-Mar-17 14:33N 35°02' E 139°39'  
Track history (hours):
 
Tides and Currents Weather Stations Pressure Air Temp Water Temp Dewpoint Dewpoint Depression Visibility Wind Speed Wind Dir Waves Ship Positions

Hiyodori

Last reported at 2015-Mar-27 14:20 UTC. Time now 2015-Mar-27 19:16 UTC.
Position N 35°02' E 139°28'.

Length 88 m; draft 3.6 m.

Type: Cargo ship. MMSI: 431000132.

Date/timePositionNaut miles runAvg speedWind from/ knotsBaromVisibWave heightAir tempDewpointWater temp
2015-Mar-27 14:20N 35°02' E 139°28'7 9.5
2015-Mar-27 13:33N 35°05' E 139°37'1010.2
2015-Mar-27 12:33N 35°12' E 139°46'1010.2
2015-Mar-27 11:33N 35°22' E 139°42'5 4.6
2015-Mar-27 10:33N 35°26' E 139°41'0 0.0
2015-Mar-27 09:33N 35°26' E 139°41'0 0.0
2015-Mar-27 08:33N 35°26' E 139°41'0 0.0
2015-Mar-27 07:33N 35°26' E 139°41'0 0.5
2015-Mar-27 06:34N 35°27' E 139°41'7 7.1
2015-Mar-27 05:33N 35°30' E 139°49'6 6.4
2015-Mar-27 04:33N 35°36' E 139°47'5 4.6
2015-Mar-27 03:33N 35°33' E 139°51'6 5.9
2015-Mar-27 02:34N 35°29' E 139°45'0 0.2
2015-Mar-27 01:34N 35°29' E 139°45'1111.3
2015-Mar-27 00:33N 35°18' E 139°45'1212.2
2015-Mar-26 23:33N 35°06' E 139°44'14 0.4
2015-Mar-25 09:27N 35°00' E 139°29'910.1
2015-Mar-25 08:33N 35°05' E 139°38'1110.9
2015-Mar-25 07:33N 35°14' E 139°46'1110.7
2015-Mar-25 06:34N 35°24' E 139°43'3 3.3
2015-Mar-25 05:34N 35°28' E 139°42'0 0.0
2015-Mar-25 04:34N 35°28' E 139°42'1 0.9
2015-Mar-25 03:33N 35°27' E 139°43'4 4.1
2015-Mar-25 02:34N 35°24' E 139°44'0 0.0
2015-Mar-25 01:34N 35°24' E 139°44'0 0.0
2015-Mar-25 00:33N 35°24' E 139°44'0 0.0
2015-Mar-24 23:33N 35°24' E 139°44'0 0.0
2015-Mar-24 22:33N 35°24' E 139°44'0 0.0
2015-Mar-24 21:34N 35°24' E 139°44'0 0.0
2015-Mar-24 20:34N 35°24' E 139°44'0 0.0
2015-Mar-24 19:34N 35°24' E 139°44'0 0.0
2015-Mar-24 18:34N 35°24' E 139°44'0 0.0
2015-Mar-24 17:33N 35°24' E 139°44'0 0.0
2015-Mar-24 16:33N 35°24' E 139°44'0 0.0
2015-Mar-24 15:33N 35°24' E 139°44'0 0.0
2015-Mar-24 14:33N 35°24' E 139°44'0 0.0
2015-Mar-24 13:34N 35°24' E 139°44'0 0.0
2015-Mar-24 12:34N 35°24' E 139°44'0 0.0
2015-Mar-24 11:33N 35°24' E 139°44'0 0.0
2015-Mar-24 10:33N 35°24' E 139°44'0 0.1
2015-Mar-24 09:34N 35°24' E 139°44'3 2.9
2015-Mar-24 08:33N 35°24' E 139°41'0 0.0
2015-Mar-24 07:34N 35°24' E 139°41'0 0.2
2015-Mar-24 06:34N 35°24' E 139°41'3 2.7
2015-Mar-24 05:34N 35°23' E 139°43'0 0.0
2015-Mar-24 04:34N 35°23' E 139°43'0 0.3
2015-Mar-24 03:33N 35°22' E 139°43'1010.4
2015-Mar-24 02:33N 35°12' E 139°47'1211.6
2015-Mar-24 01:33N 35°02' E 139°39'12 0.4
2015-Mar-22 16:15N 35°02' E 139°24'710.3
2015-Mar-22 15:33N 35°04' E 139°33'1010.5
2015-Mar-22 14:33N 35°10' E 139°44'1110.9
2015-Mar-22 13:33N 35°20' E 139°42'4 3.9
2015-Mar-22 12:33N 35°24' E 139°41'0 0.0
2015-Mar-22 11:33N 35°24' E 139°41'0 0.0
2015-Mar-22 10:33N 35°24' E 139°41'1 0.8
2015-Mar-22 09:33N 35°23' E 139°41'2 2.0
2015-Mar-22 08:33N 35°23' E 139°44'0 0.1
2015-Mar-22 07:33N 35°23' E 139°44'8 8.1
2015-Mar-22 06:33N 35°15' E 139°47'1211.8
2015-Mar-22 05:33N 35°04' E 139°42'24210.5
2015-Mar-21 06:27N 33°51' E 135°03'1112.1
2015-Mar-21 05:34N 34°02' E 134°59'1313.0
2015-Mar-21 04:33N 34°15' E 134°58'1212.0
2015-Mar-21 03:33N 34°26' E 135°05'1212.1
2015-Mar-21 02:33N 34°34' E 135°15'7 7.2
2015-Mar-21 01:33N 34°41' E 135°17'0 0.0
2015-Mar-21 00:33N 34°41' E 135°17'0 0.0
2015-Mar-20 23:33N 34°41' E 135°17'3 3.3
2015-Mar-20 22:33N 34°39' E 135°20'0 0.2
2015-Mar-20 21:33N 34°39' E 135°20'0 0.0
2015-Mar-20 20:33N 34°39' E 135°20'0 0.1
2015-Mar-20 19:33N 34°39' E 135°20'0 0.0
2015-Mar-20 18:33N 34°39' E 135°20'0 0.0
2015-Mar-20 17:33N 34°39' E 135°20'4 4.4
2015-Mar-20 16:33N 34°35' E 135°17'1110.6
2015-Mar-20 15:33N 34°27' E 135°09'13 9.8
2015-Mar-20 14:14N 34°17' E 134°59'710.5
2015-Mar-20 13:33N 34°09' E 135°00'1110.4
2015-Mar-20 12:31N 33°59' E 135°01'238 9.9
2015-Mar-19 12:31N 35°06' E 139°38'1212.1
2015-Mar-19 11:33N 35°16' E 139°46'10 9.6
2015-Mar-19 10:33N 35°24' E 139°41'1 0.9
2015-Mar-19 09:33N 35°24' E 139°40'2 2.2
2015-Mar-19 08:33N 35°25' E 139°42'4 4.4
2015-Mar-19 07:33N 35°29' E 139°39'0 0.0
2015-Mar-19 06:33N 35°29' E 139°39'0 0.0
2015-Mar-19 05:33N 35°29' E 139°39'0 0.0
2015-Mar-19 04:33N 35°29' E 139°39'0 0.0
2015-Mar-19 03:33N 35°29' E 139°39'0 0.0
2015-Mar-19 02:33N 35°29' E 139°39'0 0.0
2015-Mar-19 01:33N 35°29' E 139°39'0 0.0
2015-Mar-19 00:33N 35°29' E 139°39'0 0.0
2015-Mar-18 23:33N 35°29' E 139°39'0 0.0
2015-Mar-18 22:33N 35°29' E 139°39'0 0.0
2015-Mar-18 21:33N 35°29' E 139°39'0 0.0
2015-Mar-18 20:33N 35°29' E 139°39'0 0.0
2015-Mar-18 19:33N 35°29' E 139°39'0 0.0
2015-Mar-18 18:33N 35°29' E 139°39'0 0.0
2015-Mar-18 17:33N 35°29' E 139°39'0 0.0
2015-Mar-18 16:33N 35°29' E 139°39'0 0.0
2015-Mar-18 15:33N 35°29' E 139°39'0 0.0
2015-Mar-18 14:33N 35°29' E 139°39'0 0.0
2015-Mar-18 13:33N 35°29' E 139°39'0 0.0
2015-Mar-18 12:33N 35°29' E 139°39'0 0.0
2015-Mar-18 11:33N 35°29' E 139°39'0 0.0
2015-Mar-18 10:33N 35°29' E 139°39'0 0.0
2015-Mar-18 09:33N 35°29' E 139°39'0 0.0
2015-Mar-18 08:33N 35°29' E 139°39'3 2.5
2015-Mar-18 07:33N 35°27' E 139°41'1 0.9
2015-Mar-18 06:33N 35°28' E 139°42'2 1.5
2015-Mar-18 05:33N 35°26' E 139°43'0 0.0
2015-Mar-18 04:33N 35°26' E 139°43'0 0.0
2015-Mar-18 03:33N 35°26' E 139°43'0 0.0
2015-Mar-18 02:33N 35°26' E 139°43'0 0.0
2015-Mar-18 01:33N 35°26' E 139°43'0 0.1
2015-Mar-18 00:33N 35°26' E 139°43'0 0.0
2015-Mar-17 23:33N 35°26' E 139°43'0 0.0
2015-Mar-17 22:33N 35°26' E 139°43'0 0.0
2015-Mar-17 21:33N 35°26' E 139°43'0 0.1
2015-Mar-17 20:33N 35°26' E 139°43'0 0.0
2015-Mar-17 19:33N 35°26' E 139°43'0 0.1
2015-Mar-17 18:33N 35°26' E 139°43'0 0.0
2015-Mar-17 17:33N 35°26' E 139°43'3 2.9
2015-Mar-17 16:34N 35°24' E 139°43'1211.7
2015-Mar-17 15:33N 35°12' E 139°47'1211.6
2015-Mar-17 14:33N 35°02' E 139°39'  

Dump ship's entire track history